Terminal Aerodrome Forecast
Issued by NWS Duluth, MN

Home | Current Version | Previous Version | Text Only | Print | Product List | Glossary On
Versions: 1 2 3 4 5 6 7 8 9 10 11 12 13 14 15 16 17 18 19 20
787
FTUS43 KDLH 112338
TAFINL
TAF
KINL 112338Z 1200/1224 28008KT P6SM OVC040
     FM120200 30010KT P6SM BKN028
     FM120400 30010KT P6SM SCT028
     FM121200 33012KT P6SM SKC
     FM121800 31013G19KT P6SM SKC
     FM122100 31012KT P6SM SKC=

USA.gov is the U.S. government's official web portal to all federal, state and local government web resources and services.